Etusivu
METAR-TAF:

METAR-TAF

Lentoasemat :

Montego Bay, Jamaika

Leveyspiiri: 18-30N, Pituuspiiri: 077-55W, korkeus merenpinnasta: 1 m

Tämänhetkinen sää

Tämä raportti tehtiin 37 minuuttia sitten, kello 11.00 UTC
Tuuli 4 kn etelästä/kaakosta
Lämpötila 25°C
Kosteus 79%
Ilmanpaine 1011 hPa
Näkyvyys 10 km tai enemmän
Muutamia pilviä 2200 ft:n korkeudessa

METAR: MKJS 011100Z 15004KT 9999 FEW022 25/21 Q1011

Aika: 06:37 (11:37 UTC)

Sääennuste

Tämä raportti tehtiin 22 minuuttia sitten, kello 11.15 UTC
Ennuste voimassa 01. päivästä klo 12 UTC - 02. päivään klo 12 UTC
Tuuli 2 kn eri suunnista
Näkyvyys 10 km tai enemmän
Muutamia pilviä 2200 ft:n korkeudessa
Tulossa
01. päivästä klo 14 UTC - 01. päivään klo 16 UTC
Tuuli 10 kn lännestä/luoteesta
Tulossa
02. päivästä klo 00 UTC - 02. päivään klo 02 UTC
Tuuli 2 kn eri suunnista

TAF: MKJS 011115Z 0112/0212 VRB02KT 9999 FEW022 BECMG 0114/0116 30010KT BECMG 0200/0202 VRB02KT

Säähavainnot ja -ennusteet yli 4000 lentoasemalta (METAR- ja TAF-raportit).

Käytössä olevat sääasemat on merkitty karttaan keltaisilla ja punaisilla pisteillä.

Aseta hiiri pisteen päälle nähdäksesi sääaseman nimen.

Klikkaa sitten nähdäksesi säähavainnot ja -ennusteet.

Kartan vaihtaminen: klikkaa mustalla rastilla varustettuja vihreitä pisteitä, niin voit zoomata sisään; viivalla varustettua vihreää pistettä, niin voit zoomata ulos tai vihreitä nuolia, niin pääset viereisille kartoille.


METAR-TAF: